Time;durP1;ratioP1;P1;durP2;ratioP2;P2;SDS_P1;SDS_P2;PMS_P1;PMS_P2;Temp;Humidity;BMP_temperature;BMP_pressure;BME280_temperature;BME280_humidity;BME280_pressure;Samples;Min_cycle;Max_cycle;Signal;HPM_P1;HPM_P2
2024/02/20 00:00:38;;;;;;;15.80;7.37;;;12.00;99.90;;;;;;5033781;28;20459;-75
2024/02/20 00:03:04;;;;;;;11.33;7.27;;;12.00;99.90;;;;;;5045425;28;20180;-63
2024/02/20 00:05:31;;;;;;;15.97;7.30;;;11.90;99.90;;;;;;5054740;28;20414;-75
2024/02/20 00:08:02;;;;;;;10.83;6.90;;;12.00;99.90;;;;;;5053516;28;20424;-76
2024/02/20 00:10:28;;;;;;;9.83;6.97;;;12.00;99.90;;;;;;5052872;28;20403;-76
2024/02/20 00:12:54;;;;;;;13.07;7.97;;;12.00;99.90;;;;;;5054649;28;20409;-76
2024/02/20 00:15:21;;;;;;;11.30;7.47;;;12.00;99.90;;;;;;5053145;28;20871;-71
2024/02/20 00:17:47;;;;;;;13.80;7.53;;;12.00;99.90;;;;;;5039616;28;20666;-75
2024/02/20 00:20:13;;;;;;;10.83;7.40;;;12.00;99.90;;;;;;5052025;28;20425;-76
2024/02/20 00:22:39;;;;;;;17.40;7.87;;;12.00;99.90;;;;;;5053346;28;20919;-76
2024/02/20 00:25:05;;;;;;;14.63;6.50;;;12.00;99.90;;;;;;5037779;28;20209;-75
2024/02/20 00:27:31;;;;;;;11.27;5.73;;;12.00;99.90;;;;;;5066434;28;20619;-77
2024/02/20 00:29:57;;;;;;;13.27;6.50;;;12.00;99.90;;;;;;5034302;28;20412;-76
2024/02/20 00:32:23;;;;;;;12.57;6.20;;;12.00;99.90;;;;;;5033386;28;20975;-76
2024/02/20 00:34:49;;;;;;;16.47;7.13;;;12.00;99.90;;;;;;5038538;28;20550;-75
2024/02/20 00:37:15;;;;;;;14.10;6.87;;;12.00;99.90;;;;;;5040628;28;20194;-76
2024/02/20 00:39:41;;;;;;;12.33;6.17;;;11.90;99.90;;;;;;5033731;28;20178;-76
2024/02/20 00:42:08;;;;;;;8.53;6.40;;;11.90;99.90;;;;;;5033431;28;20424;-64
2024/02/20 00:44:34;;;;;;;11.07;6.13;;;11.80;99.90;;;;;;5032912;28;20430;-75
2024/02/20 00:47:00;;;;;;;13.37;7.33;;;11.80;99.90;;;;;;5033712;28;20403;-74
2024/02/20 00:49:26;;;;;;;14.07;6.43;;;11.80;99.90;;;;;;5032828;28;20404;-75
2024/02/20 00:51:51;;;;;;;11.10;6.13;;;11.70;99.90;;;;;;5052200;28;20501;-75
2024/02/20 00:54:18;;;;;;;14.70;6.30;;;11.70;99.90;;;;;;5037526;28;20206;-74
2024/02/20 00:56:44;;;;;;;15.73;6.37;;;11.70;99.90;;;;;;5049247;28;20523;-75
2024/02/20 00:59:11;;;;;;;12.03;6.90;;;11.60;99.90;;;;;;5031020;28;20402;-64
2024/02/20 01:01:37;;;;;;;14.10;6.43;;;11.70;99.90;;;;;;5033279;28;20406;-76
2024/02/20 01:04:04;;;;;;;11.57;6.00;;;11.60;99.90;;;;;;5033251;28;20424;-75
2024/02/20 01:06:32;;;;;;;17.83;6.57;;;11.60;99.90;;;;;;5031503;28;20460;-75
2024/02/20 01:08:57;;;;;;;10.53;5.73;;;11.60;99.90;;;;;;5033134;28;20498;-74
2024/02/20 01:11:23;;;;;;;12.70;6.63;;;11.50;99.90;;;;;;5037100;28;20456;-74
2024/02/20 01:13:49;;;;;;;14.77;7.43;;;11.50;99.90;;;;;;5032447;28;20304;-75
2024/02/20 01:16:14;;;;;;;12.20;6.90;;;11.50;99.90;;;;;;5032404;28;20218;-75
2024/02/20 01:18:41;;;;;;;13.60;7.60;;;11.50;99.90;;;;;;5031595;28;20236;-75
2024/02/20 01:21:07;;;;;;;14.70;7.30;;;11.50;99.90;;;;;;5054811;28;20185;-75
2024/02/20 01:23:33;;;;;;;13.33;6.00;;;11.50;99.90;;;;;;5063350;28;20903;-75
2024/02/20 01:25:59;;;;;;;18.00;7.00;;;11.50;99.90;;;;;;5052794;28;20422;-75
2024/02/20 01:28:25;;;;;;;16.17;7.10;;;11.40;99.90;;;;;;5051958;28;20178;-75
2024/02/20 01:30:51;;;;;;;16.40;6.33;;;11.40;99.90;;;;;;5052771;28;20190;-76
2024/02/20 01:33:16;;;;;;;16.27;7.90;;;11.50;99.90;;;;;;5051817;28;20171;-75
2024/02/20 01:35:42;;;;;;;14.03;6.83;;;11.50;99.90;;;;;;5038913;28;20459;-75
2024/02/20 01:38:08;;;;;;;18.17;6.33;;;11.40;99.90;;;;;;5034581;28;20270;-75
2024/02/20 01:40:37;;;;;;;16.53;6.80;;;11.30;99.90;;;;;;5051808;28;20887;-75
2024/02/20 01:43:05;;;;;;;16.27;7.20;;;11.30;99.90;;;;;;5051311;28;20637;-76
2024/02/20 01:45:34;;;;;;;12.33;6.70;;;11.30;99.90;;;;;;5051361;28;20559;-75
2024/02/20 01:48:04;;;;;;;16.00;7.20;;;11.40;99.90;;;;;;5052488;28;20484;-76
2024/02/20 01:50:35;;;;;;;16.20;7.10;;;11.30;99.90;;;;;;5055317;28;21233;-75
2024/02/20 01:53:05;;;;;;;12.60;7.63;;;11.30;99.90;;;;;;5059388;28;20419;-74
2024/02/20 01:55:32;;;;;;;12.27;6.23;;;11.30;99.90;;;;;;5047432;28;20463;-75
2024/02/20 01:57:58;;;;;;;15.60;6.47;;;11.40;99.90;;;;;;5072318;28;20395;-75
2024/02/20 02:00:24;;;;;;;14.00;6.33;;;11.40;99.90;;;;;;5054702;28;20478;-75
2024/02/20 02:02:50;;;;;;;10.43;7.03;;;11.40;99.90;;;;;;5052463;28;20935;-75
2024/02/20 02:05:16;;;;;;;19.87;7.50;;;11.30;99.90;;;;;;5051481;28;20176;-72
2024/02/20 02:07:42;;;;;;;14.73;6.90;;;11.30;99.90;;;;;;5046484;28;20977;-75
2024/02/20 02:10:08;;;;;;;17.10;7.23;;;11.30;99.90;;;;;;5032177;28;20412;-76
2024/02/20 02:12:34;;;;;;;13.97;7.93;;;11.30;99.90;;;;;;5031197;28;20757;-76
2024/02/20 02:15:00;;;;;;;19.63;8.07;;;11.30;99.90;;;;;;5032048;28;20511;-76
2024/02/20 02:17:25;;;;;;;14.57;7.43;;;11.30;99.90;;;;;;5030102;28;20439;-75
2024/02/20 02:19:51;;;;;;;17.07;9.00;;;11.30;99.90;;;;;;5036632;28;21015;-75
2024/02/20 02:22:17;;;;;;;18.83;8.80;;;11.20;99.90;;;;;;5050366;28;20175;-73
2024/02/20 02:24:44;;;;;;;18.40;8.10;;;11.30;99.90;;;;;;5051380;28;20281;-75
2024/02/20 02:27:09;;;;;;;18.80;8.80;;;11.30;99.90;;;;;;5050583;28;20627;-75
2024/02/20 02:29:35;;;;;;;21.10;8.37;;;11.20;99.90;;;;;;5056455;28;20517;-73
2024/02/20 02:32:02;;;;;;;14.63;7.70;;;11.20;99.90;;;;;;5069038;28;20252;-76
2024/02/20 02:34:29;;;;;;;17.00;7.73;;;11.20;99.90;;;;;;5070845;28;20956;-75
2024/02/20 02:36:58;;;;;;;15.83;7.80;;;11.20;99.90;;;;;;5071957;28;20401;-76
2024/02/20 02:39:25;;;;;;;18.73;8.33;;;11.20;99.90;;;;;;5071154;28;20413;-76
2024/02/20 02:41:51;;;;;;;17.30;7.50;;;11.30;99.90;;;;;;5071887;28;20434;-76
2024/02/20 02:44:18;;;;;;;12.77;6.90;;;11.20;99.90;;;;;;5063611;28;20435;-65
2024/02/20 02:46:44;;;;;;;16.77;7.80;;;11.20;99.90;;;;;;5051884;28;20458;-76
2024/02/20 02:49:10;;;;;;;11.27;7.63;;;11.10;99.90;;;;;;5051823;28;20498;-76
2024/02/20 02:51:36;;;;;;;18.93;7.80;;;11.10;99.90;;;;;;5039265;28;20675;-76
2024/02/20 02:54:02;;;;;;;15.80;7.70;;;11.10;99.90;;;;;;5032073;28;20460;-77
2024/02/20 02:56:28;;;;;;;17.43;7.70;;;11.00;99.90;;;;;;5031102;28;20193;-76
2024/02/20 02:58:55;;;;;;;18.17;8.13;;;11.10;99.90;;;;;;5030853;28;20770;-76
2024/02/20 03:01:22;;;;;;;24.90;9.30;;;11.10;99.90;;;;;;5029704;28;20428;-75
2024/02/20 03:03:48;;;;;;;16.20;9.40;;;11.10;99.90;;;;;;5033671;28;20423;-77
2024/02/20 03:06:14;;;;;;;21.47;9.13;;;11.10;99.90;;;;;;5031737;28;20413;-76
2024/02/20 03:08:44;;;;;;;16.40;9.87;;;11.20;99.90;;;;;;5030990;28;20434;-76
2024/02/20 03:11:11;;;;;;;17.00;8.67;;;11.10;99.90;;;;;;5031843;28;20490;-75
2024/02/20 03:13:36;;;;;;;23.43;9.53;;;11.20;99.90;;;;;;5030537;28;20461;-77
2024/02/20 03:16:04;;;;;;;18.43;9.60;;;11.20;99.90;;;;;;5030337;28;20467;-77
2024/02/20 03:18:36;;;;;;;18.90;9.97;;;11.20;99.90;;;;;;5030644;28;20532;-76
2024/02/20 03:21:02;;;;;;;21.03;9.87;;;11.20;99.90;;;;;;5060666;28;20775;-69
2024/02/20 03:23:29;;;;;;;20.40;10.20;;;11.20;99.90;;;;;;5073540;28;20506;-76
2024/02/20 03:25:55;;;;;;;20.00;10.73;;;11.20;99.90;;;;;;5075055;28;20555;-76
2024/02/20 03:28:21;;;;;;;22.77;12.23;;;11.30;99.90;;;;;;5067360;28;20422;-74
2024/02/20 03:30:48;;;;;;;18.37;10.57;;;11.20;99.90;;;;;;5053782;28;20506;-77
2024/02/20 03:33:14;;;;;;;29.03;11.30;;;11.20;99.90;;;;;;5055094;28;20858;-76
2024/02/20 03:35:40;;;;;;;24.30;12.23;;;11.20;99.90;;;;;;5054269;28;20507;-76
2024/02/20 03:38:06;;;;;;;27.90;12.80;;;11.20;99.90;;;;;;5053419;28;20418;-76
2024/02/20 03:40:32;;;;;;;22.10;13.90;;;11.20;99.90;;;;;;5053207;28;20427;-76
2024/02/20 03:42:58;;;;;;;27.63;12.40;;;11.10;99.90;;;;;;5054771;28;20179;-76
2024/02/20 03:45:24;;;;;;;25.33;13.13;;;11.20;99.90;;;;;;5054156;28;20416;-76
2024/02/20 03:47:50;;;;;;;26.63;13.30;;;11.20;99.90;;;;;;5054730;28;20409;-76
2024/02/20 03:50:16;;;;;;;23.23;12.17;;;11.20;99.90;;;;;;5062819;28;20258;-75
2024/02/20 03:52:41;;;;;;;20.30;11.80;;;11.20;99.90;;;;;;5065634;28;20197;-76
2024/02/20 03:55:08;;;;;;;22.93;12.27;;;11.30;99.90;;;;;;5054727;28;20203;-76
2024/02/20 03:57:34;;;;;;;28.20;12.33;;;11.30;99.90;;;;;;5040436;28;20186;-75
2024/02/20 04:00:00;;;;;;;31.17;13.00;;;11.20;99.90;;;;;;5034546;28;20405;-75
2024/02/20 04:02:26;;;;;;;26.60;12.73;;;11.20;99.90;;;;;;5034564;28;20441;-75
2024/02/20 04:04:53;;;;;;;23.93;12.93;;;11.20;99.90;;;;;;5034175;28;20470;-76
2024/02/20 04:07:19;;;;;;;28.70;13.50;;;11.20;99.90;;;;;;5044060;28;20425;-65
2024/02/20 04:09:45;;;;;;;27.97;13.43;;;11.20;99.90;;;;;;5054095;28;20467;-76
2024/02/20 04:12:11;;;;;;;23.17;13.80;;;11.10;99.90;;;;;;5054477;28;20398;-76
2024/02/20 04:14:36;;;;;;;21.40;12.67;;;11.10;99.90;;;;;;5053285;28;20229;-77
2024/02/20 04:17:02;;;;;;;33.67;13.63;;;11.10;99.90;;;;;;5047082;28;20179;-76
2024/02/20 04:19:28;;;;;;;24.00;13.20;;;11.10;99.90;;;;;;5040759;28;20189;-75
2024/02/20 04:21:53;;;;;;;21.67;12.83;;;11.20;99.90;;;;;;5074186;28;20185;-67
2024/02/20 04:24:19;;;;;;;29.23;13.80;;;11.20;99.90;;;;;;5073997;28;20600;-65
2024/02/20 04:26:45;;;;;;;24.73;13.23;;;11.20;99.90;;;;;;5073384;28;20180;-72
2024/02/20 04:29:11;;;;;;;22.43;13.30;;;11.20;99.90;;;;;;5073718;28;20644;-73
2024/02/20 04:31:36;;;;;;;24.93;13.07;;;11.10;99.90;;;;;;5041209;28;20517;-73
2024/02/20 04:34:03;;;;;;;24.23;13.60;;;11.10;99.90;;;;;;5033947;28;20625;-73
2024/02/20 04:36:28;;;;;;;34.30;13.43;;;11.10;99.90;;;;;;5040868;28;20174;-72
2024/02/20 04:38:57;;;;;;;21.33;13.50;;;11.10;99.90;;;;;;5053940;28;20868;-73
2024/02/20 04:41:26;;;;;;;27.93;13.57;;;11.10;99.90;;;;;;5046776;28;20173;-65
2024/02/20 04:43:51;;;;;;;33.07;15.40;;;11.10;99.90;;;;;;5033706;28;20508;-73
2024/02/20 04:46:17;;;;;;;31.17;13.33;;;11.10;99.90;;;;;;5033429;28;20539;-73
2024/02/20 04:48:43;;;;;;;24.83;13.90;;;11.10;99.90;;;;;;5033748;28;20179;-71
2024/02/20 04:51:09;;;;;;;27.10;14.10;;;11.10;99.90;;;;;;5049727;28;20471;-70
2024/02/20 04:53:34;;;;;;;24.20;13.67;;;11.00;99.90;;;;;;5069988;28;20174;-69
2024/02/20 04:56:00;;;;;;;27.40;13.87;;;11.00;99.90;;;;;;5050970;28;20206;-69
2024/02/20 04:58:26;;;;;;;24.53;14.67;;;11.10;99.90;;;;;;5041437;28;20180;-67
2024/02/20 05:00:52;;;;;;;26.70;13.33;;;11.10;99.90;;;;;;5052148;28;20265;-70
2024/02/20 05:03:18;;;;;;;26.23;14.40;;;11.10;99.90;;;;;;5052026;28;20493;-70
2024/02/20 05:05:43;;;;;;;24.80;14.67;;;11.00;99.90;;;;;;5039015;28;20266;-70
2024/02/20 05:08:09;;;;;;;32.87;16.63;;;11.00;99.90;;;;;;5040398;28;20613;-70
2024/02/20 05:10:35;;;;;;;32.00;14.80;;;11.10;99.90;;;;;;5053291;28;20215;-70
2024/02/20 05:13:00;;;;;;;30.10;15.57;;;11.10;99.90;;;;;;5053636;28;20169;-70
2024/02/20 05:15:26;;;;;;;29.90;14.17;;;11.10;99.90;;;;;;5052280;28;20534;-68
2024/02/20 05:17:52;;;;;;;24.60;13.93;;;11.00;99.90;;;;;;5033247;28;20662;-70
2024/02/20 05:20:18;;;;;;;23.97;15.20;;;11.00;99.90;;;;;;5053265;28;20578;-69
2024/02/20 05:22:43;;;;;;;24.63;15.13;;;11.00;99.90;;;;;;5068741;28;20185;-70
2024/02/20 05:25:09;;;;;;;26.13;14.50;;;11.00;99.90;;;;;;5073268;28;20222;-70
2024/02/20 05:27:35;;;;;;;27.27;14.50;;;11.00;99.90;;;;;;5072579;28;20179;-70
2024/02/20 05:30:00;;;;;;;26.53;14.07;;;11.00;99.90;;;;;;5073048;28;20227;-70
2024/02/20 05:32:26;;;;;;;29.63;15.30;;;11.00;99.90;;;;;;5070011;28;20173;-70
2024/02/20 05:34:52;;;;;;;29.60;14.10;;;11.00;99.90;;;;;;5051962;28;20210;-70
2024/02/20 05:37:18;;;;;;;36.13;15.80;;;10.90;99.90;;;;;;5036974;28;20187;-70
2024/02/20 05:39:43;;;;;;;26.00;13.60;;;10.90;99.90;;;;;;5033321;28;20477;-70
2024/02/20 05:42:09;;;;;;;26.13;15.40;;;10.80;99.90;;;;;;5032720;28;20217;-71
2024/02/20 05:44:35;;;;;;;30.27;15.17;;;10.80;99.90;;;;;;5032064;28;20182;-70
2024/02/20 05:47:01;;;;;;;25.77;14.70;;;10.80;99.90;;;;;;5032935;28;20183;-70
2024/02/20 05:49:26;;;;;;;26.23;14.60;;;10.80;99.90;;;;;;5045003;28;20179;-70
2024/02/20 05:51:53;;;;;;;27.43;16.03;;;10.80;99.90;;;;;;5071566;28;20176;-71
2024/02/20 05:54:19;;;;;;;22.50;15.30;;;10.80;99.90;;;;;;5061934;28;20208;-71
2024/02/20 05:56:45;;;;;;;27.77;14.50;;;10.80;99.90;;;;;;5031954;28;20681;-70
2024/02/20 05:59:10;;;;;;;28.23;15.50;;;10.80;99.90;;;;;;5031547;28;21004;-71
2024/02/20 06:01:36;;;;;;;24.03;15.40;;;10.80;99.90;;;;;;5032840;28;20209;-70
2024/02/20 06:04:04;;;;;;;27.27;17.60;;;10.80;99.90;;;;;;5031081;28;20184;-70
2024/02/20 06:06:30;;;;;;;28.63;15.47;;;10.70;99.90;;;;;;5030395;28;20180;-67
2024/02/20 06:08:56;;;;;;;22.13;14.03;;;10.70;99.90;;;;;;5032253;28;20429;-68
2024/02/20 06:11:23;;;;;;;27.63;14.80;;;10.70;99.90;;;;;;5033326;28;20422;-70
2024/02/20 06:13:49;;;;;;;23.70;15.53;;;10.70;99.90;;;;;;5035678;28;20463;-70
2024/02/20 06:16:15;;;;;;;31.23;13.97;;;10.70;99.90;;;;;;5050862;28;20431;-70
2024/02/20 06:18:41;;;;;;;28.20;15.00;;;10.70;99.90;;;;;;5049415;28;20428;-70
2024/02/20 06:21:08;;;;;;;23.60;13.70;;;10.70;99.90;;;;;;5050931;28;20926;-70
2024/02/20 06:23:38;;;;;;;25.00;13.67;;;10.70;99.90;;;;;;5049927;28;20414;-70
2024/02/20 06:26:05;;;;;;;32.53;14.87;;;10.70;99.90;;;;;;5034105;28;20460;-70
2024/02/20 06:28:34;;;;;;;31.23;14.97;;;10.70;99.90;;;;;;5051262;28;20394;-64
2024/02/20 06:31:07;;;;;;;22.83;14.37;;;10.70;99.90;;;;;;5053617;28;20431;-70
2024/02/20 06:33:33;;;;;;;23.17;13.97;;;10.70;99.90;;;;;;5051250;28;20475;-68
2024/02/20 06:35:58;;;;;;;22.77;15.00;;;10.70;99.90;;;;;;5047679;28;21024;-69
2024/02/20 06:38:27;;;;;;;20.67;14.20;;;10.80;99.90;;;;;;5064986;28;20427;-69
2024/02/20 06:40:53;;;;;;;19.47;13.20;;;10.80;99.90;;;;;;5069245;28;20196;-68
2024/02/20 06:43:19;;;;;;;19.37;12.20;;;10.80;99.90;;;;;;5069483;28;20424;-68
2024/02/20 06:45:45;;;;;;;23.07;12.23;;;10.80;99.90;;;;;;5071328;28;20540;-68
2024/02/20 06:48:10;;;;;;;19.27;14.10;;;10.80;99.90;;;;;;5072153;28;20194;-68
2024/02/20 06:50:36;;;;;;;28.43;12.60;;;10.90;99.90;;;;;;5064037;28;20191;-68
2024/02/20 06:53:02;;;;;;;20.67;11.87;;;10.90;99.90;;;;;;5069360;28;20185;-68
2024/02/20 06:55:27;;;;;;;24.60;11.50;;;11.00;99.90;;;;;;5071983;28;20632;-70
2024/02/20 06:57:58;;;;;;;19.53;10.93;;;11.00;99.90;;;;;;5074124;28;20181;-69
2024/02/20 07:00:25;;;;;;;22.97;12.70;;;10.90;99.90;;;;;;5076203;28;20192;-69
2024/02/20 07:02:50;;;;;;;17.97;10.63;;;11.00;99.90;;;;;;5075349;28;20425;-68
2024/02/20 07:05:16;;;;;;;18.87;12.33;;;11.00;99.90;;;;;;5074662;28;20956;-70
2024/02/20 07:07:44;;;;;;;19.23;11.67;;;11.00;99.90;;;;;;5075176;28;20203;-70
2024/02/20 07:10:10;;;;;;;18.77;10.70;;;11.00;99.90;;;;;;5056465;28;20184;-70
2024/02/20 07:12:36;;;;;;;18.63;11.17;;;11.10;99.90;;;;;;5071910;28;20407;-70
2024/02/20 07:15:05;;;;;;;20.70;10.77;;;11.10;99.90;;;;;;5075188;28;20535;-70
2024/02/20 07:17:31;;;;;;;20.50;11.50;;;11.10;99.90;;;;;;5055310;28;20406;-69
2024/02/20 07:19:56;;;;;;;22.30;10.50;;;11.10;99.90;;;;;;5055222;28;20778;-70
2024/02/20 07:22:23;;;;;;;18.07;10.10;;;11.10;99.90;;;;;;5055512;28;20181;-72
2024/02/20 07:24:49;;;;;;;21.30;11.83;;;11.10;99.90;;;;;;5054683;28;20167;-71
2024/02/20 07:27:14;;;;;;;20.50;12.20;;;11.20;99.90;;;;;;5053870;28;20461;-71
2024/02/20 07:29:43;;;;;;;18.63;10.60;;;11.20;99.90;;;;;;5045578;28;20189;-71
2024/02/20 07:32:10;;;;;;;22.20;11.60;;;11.10;99.90;;;;;;5075427;28;20171;-71
2024/02/20 07:34:38;;;;;;;17.17;11.33;;;11.10;99.90;;;;;;5074889;28;21028;-71
2024/02/20 07:37:07;;;;;;;21.20;10.97;;;11.10;99.90;;;;;;5074688;28;20412;-71
2024/02/20 07:39:33;;;;;;;17.40;9.80;;;11.10;99.90;;;;;;5072847;28;20429;-68
2024/02/20 07:41:58;;;;;;;18.57;11.77;;;11.20;99.90;;;;;;5061401;28;20432;-71
2024/02/20 07:44:25;;;;;;;22.27;12.57;;;11.20;99.90;;;;;;5035838;28;20429;-70
2024/02/20 07:46:52;;;;;;;15.10;10.80;;;11.20;99.90;;;;;;5044930;28;20767;-72
2024/02/20 07:49:18;;;;;;;27.17;12.20;;;11.20;99.90;;;;;;5048822;28;20445;-71
2024/02/20 07:51:44;;;;;;;21.43;11.53;;;11.20;99.90;;;;;;5042151;28;20508;-69
2024/02/20 07:54:10;;;;;;;20.50;11.30;;;11.30;99.90;;;;;;5047347;28;20184;-69
2024/02/20 07:56:35;;;;;;;22.60;11.60;;;11.20;99.90;;;;;;5050847;28;20181;-69
2024/02/20 07:59:01;;;;;;;18.60;12.57;;;11.30;99.90;;;;;;5048731;28;20175;-69
2024/02/20 08:01:28;;;;;;;19.73;12.23;;;11.30;99.90;;;;;;5042930;28;20194;-69
2024/02/20 08:03:54;;;;;;;20.47;10.93;;;11.30;99.90;;;;;;5063955;28;20796;-69
2024/02/20 08:06:26;;;;;;;21.53;12.27;;;11.40;99.90;;;;;;5066074;28;20824;-69
2024/02/20 08:08:52;;;;;;;24.97;12.70;;;11.40;99.90;;;;;;5048740;28;20846;-71
2024/02/20 08:11:22;;;;;;;21.43;12.93;;;11.40;99.90;;;;;;5046051;28;20431;-71
2024/02/20 08:13:49;;;;;;;20.07;12.10;;;11.50;99.90;;;;;;5044095;28;20235;-70
2024/02/20 08:16:15;;;;;;;21.00;13.80;;;11.50;99.90;;;;;;5071367;28;20813;-71
2024/02/20 08:18:41;;;;;;;20.40;13.17;;;11.50;99.90;;;;;;5068635;28;20445;-70
2024/02/20 08:21:10;;;;;;;27.53;12.67;;;11.50;99.90;;;;;;5055757;28;20520;-71
2024/02/20 08:23:39;;;;;;;25.90;11.93;;;11.50;99.90;;;;;;5057878;28;20931;-69
2024/02/20 08:26:05;;;;;;;26.93;15.77;;;11.50;99.90;;;;;;5054324;28;20401;-72
2024/02/20 08:28:31;;;;;;;26.50;16.10;;;11.50;99.90;;;;;;5054414;28;20463;-64
2024/02/20 08:30:59;;;;;;;23.77;15.83;;;11.60;99.90;;;;;;5053581;28;20420;-63
2024/02/20 08:33:25;;;;;;;33.33;19.17;;;12.00;99.90;;;;;;5054306;28;20419;-64
2024/02/20 08:35:52;;;;;;;25.40;16.47;;;12.40;99.90;;;;;;5058070;28;20452;-64
2024/02/20 08:38:17;;;;;;;25.83;18.80;;;12.90;99.90;;;;;;5048413;28;20776;-63
2024/02/20 08:40:43;;;;;;;23.43;15.30;;;13.30;99.90;;;;;;5061089;28;20419;-64
2024/02/20 08:43:10;;;;;;;24.07;16.13;;;13.70;99.90;;;;;;5052418;28;20198;-64
2024/02/20 08:45:35;;;;;;;23.03;14.83;;;14.00;99.90;;;;;;5056837;28;20182;-61
2024/02/20 08:48:01;;;;;;;22.40;14.90;;;14.30;99.90;;;;;;5065213;28;20405;-63
2024/02/20 08:50:28;;;;;;;20.83;14.23;;;14.50;99.90;;;;;;5053476;28;20776;-63
2024/02/20 08:52:54;;;;;;;24.77;15.40;;;14.70;99.90;;;;;;5052797;28;20263;-63
2024/02/20 08:55:20;;;;;;;26.00;15.17;;;15.00;99.90;;;;;;5056034;28;20592;-63
2024/02/20 08:57:45;;;;;;;21.80;13.23;;;15.10;99.90;;;;;;5061265;28;20494;-63
2024/02/20 09:00:12;;;;;;;20.67;13.27;;;15.30;99.90;;;;;;5062270;28;20513;-63
2024/02/20 09:02:42;;;;;;;21.37;12.20;;;15.40;99.90;;;;;;5053401;28;20998;-63
2024/02/20 09:05:11;;;;;;;25.57;13.17;;;15.50;99.90;;;;;;5052930;28;20950;-64
2024/02/20 09:07:38;;;;;;;26.73;13.77;;;15.60;99.90;;;;;;5067568;28;20967;-68
2024/02/20 09:10:05;;;;;;;20.60;13.37;;;15.70;99.90;;;;;;5073190;28;20480;-70
2024/02/20 09:12:31;;;;;;;22.97;13.27;;;15.60;99.90;;;;;;5073322;28;20407;-75
2024/02/20 09:14:57;;;;;;;17.57;12.03;;;15.30;99.90;;;;;;5072007;28;21055;-70
2024/02/20 09:17:23;;;;;;;22.63;12.83;;;15.00;99.90;;;;;;5073348;28;20410;-70
2024/02/20 09:19:49;;;;;;;24.03;13.80;;;14.60;99.90;;;;;;5071952;28;20414;-70
2024/02/20 09:22:15;;;;;;;21.27;14.87;;;14.30;99.90;;;;;;5044170;28;20428;-69
2024/02/20 09:24:41;;;;;;;18.07;13.70;;;14.10;99.90;;;;;;5039139;28;20932;-69
2024/02/20 09:27:07;;;;;;;22.57;13.03;;;13.70;99.90;;;;;;5048429;28;20562;-69
2024/02/20 09:29:33;;;;;;;21.67;14.40;;;13.40;99.90;;;;;;5038512;28;20181;-70
2024/02/20 09:31:59;;;;;;;21.23;12.87;;;13.10;99.90;;;;;;5032383;28;20447;-69
2024/02/20 09:34:26;;;;;;;23.97;13.40;;;12.90;99.90;;;;;;5033117;28;20296;-70
2024/02/20 09:36:52;;;;;;;19.70;14.10;;;12.70;99.90;;;;;;5050407;28;20788;-69
2024/02/20 09:39:21;;;;;;;26.23;15.53;;;12.70;99.90;;;;;;5071772;28;20405;-70
2024/02/20 09:41:50;;;;;;;25.70;13.97;;;12.50;99.90;;;;;;5072412;28;20418;-70
2024/02/20 09:44:17;;;;;;;25.00;15.33;;;12.40;99.90;;;;;;5071150;28;20870;-70
2024/02/20 09:46:48;;;;;;;18.30;14.47;;;12.40;99.90;;;;;;5071760;28;20398;-64
2024/02/20 09:49:19;;;;;;;25.23;13.87;;;12.40;99.90;;;;;;5072516;28;20395;-70
2024/02/20 09:51:46;;;;;;;19.03;13.20;;;12.40;99.90;;;;;;5071853;28;20889;-69
2024/02/20 09:54:13;;;;;;;24.07;13.80;;;12.40;99.90;;;;;;5072761;28;20406;-70
2024/02/20 09:56:41;;;;;;;17.90;12.80;;;12.40;99.90;;;;;;5072311;28;20400;-63
2024/02/20 09:59:07;;;;;;;19.20;13.63;;;12.30;99.90;;;;;;5072809;28;20802;-70
2024/02/20 10:01:34;;;;;;;25.30;13.57;;;12.20;99.90;;;;;;5072720;28;20837;-70
2024/02/20 10:04:03;;;;;;;17.83;12.80;;;12.20;99.90;;;;;;5072122;28;20912;-69
2024/02/20 10:06:32;;;;;;;21.80;14.40;;;12.30;99.90;;;;;;5071043;28;20429;-70
2024/02/20 10:08:58;;;;;;;18.43;14.27;;;12.30;99.90;;;;;;5069790;28;20433;-70
2024/02/20 10:11:24;;;;;;;20.07;13.00;;;12.30;99.90;;;;;;5072976;28;20942;-70
2024/02/20 10:13:51;;;;;;;20.77;12.90;;;12.40;99.90;;;;;;5071945;28;20226;-69
2024/02/20 10:16:20;;;;;;;17.13;12.37;;;12.50;99.90;;;;;;5072248;28;20454;-67
2024/02/20 10:19:04;;;;;;;18.03;12.80;;;12.40;99.90;;;;;;5070743;28;20424;-69
2024/02/20 10:21:30;;;;;;;20.63;11.63;;;12.40;99.90;;;;;;5071441;28;20407;-70
2024/02/20 10:24:06;;;;;;;21.97;13.07;;;12.50;99.90;;;;;;5071991;28;20867;-68
2024/02/20 10:26:37;;;;;;;23.77;14.30;;;12.40;99.90;;;;;;5071445;28;20403;-69
2024/02/20 10:29:04;;;;;;;20.90;11.50;;;12.30;99.90;;;;;;5071955;28;20401;-68
2024/02/20 10:31:31;;;;;;;18.10;13.20;;;12.20;99.90;;;;;;5074932;28;20433;-69
2024/02/20 10:33:58;;;;;;;18.07;13.10;;;12.20;99.90;;;;;;5075918;28;20821;-69
2024/02/20 10:36:25;;;;;;;19.53;11.00;;;12.20;99.90;;;;;;5076515;28;20407;-69
2024/02/20 10:39:04;;;;;;;16.47;10.90;;;12.20;99.90;;;;;;5075852;28;20797;-68
2024/02/20 10:41:29;;;;;;;17.60;10.40;;;12.30;99.90;;;;;;5075355;28;20417;-69
2024/02/20 10:43:57;;;;;;;15.60;11.27;;;12.30;99.90;;;;;;5074614;28;20407;-68
2024/02/20 10:46:27;;;;;;;20.70;11.80;;;12.20;99.90;;;;;;5076657;28;20444;-69
2024/02/20 10:48:56;;;;;;;14.70;10.70;;;12.30;99.90;;;;;;5073526;28;20830;-69
2024/02/20 10:51:26;;;;;;;17.67;10.40;;;12.30;99.90;;;;;;5075014;28;20905;-68
2024/02/20 10:53:55;;;;;;;16.37;10.40;;;12.30;99.90;;;;;;5075666;28;20392;-68
2024/02/20 10:56:21;;;;;;;14.90;12.70;;;12.30;99.90;;;;;;5074775;28;20464;-69
2024/02/20 10:58:49;;;;;;;15.57;9.70;;;12.40;99.90;;;;;;5075518;28;20412;-68
2024/02/20 11:01:15;;;;;;;13.77;11.40;;;12.40;99.90;;;;;;5075957;28;20401;-69
2024/02/20 11:03:42;;;;;;;22.80;11.10;;;12.30;99.90;;;;;;5076010;28;20906;-68
2024/02/20 11:06:11;;;;;;;16.07;11.53;;;12.30;99.90;;;;;;5075360;28;20255;-68
2024/02/20 11:08:36;;;;;;;12.40;10.10;;;12.40;99.90;;;;;;5075859;28;20408;-68
2024/02/20 11:11:13;;;;;;;18.67;10.03;;;12.30;99.90;;;;;;5057395;28;20415;-68
2024/02/20 11:13:43;;;;;;;16.07;9.70;;;12.30;99.90;;;;;;5075553;28;20304;-68
2024/02/20 11:16:11;;;;;;;20.00;9.30;;;12.30;99.90;;;;;;5074147;28;20491;-66
2024/02/20 11:18:37;;;;;;;14.60;9.40;;;12.20;99.90;;;;;;5074628;28;20423;-68
2024/02/20 11:21:05;;;;;;;13.60;8.90;;;12.30;99.90;;;;;;5074950;28;20417;-68
2024/02/20 11:23:32;;;;;;;16.30;9.80;;;12.20;99.90;;;;;;5075819;28;20791;-68
2024/02/20 11:26:10;;;;;;;16.10;8.97;;;12.20;99.90;;;;;;5074918;28;20406;-68
2024/02/20 11:28:36;;;;;;;20.70;10.60;;;12.30;99.90;;;;;;5066690;28;20432;-69
2024/02/20 11:31:06;;;;;;;16.40;8.87;;;12.20;99.90;;;;;;5074903;28;20461;-71
2024/02/20 11:33:32;;;;;;;20.50;11.60;;;12.20;99.90;;;;;;5075476;28;20445;-70
2024/02/20 11:36:04;;;;;;;17.37;8.90;;;12.20;99.90;;;;;;5074718;28;20508;-69
2024/02/20 11:38:30;;;;;;;19.63;9.13;;;12.20;99.90;;;;;;5075387;28;20751;-70
2024/02/20 11:40:56;;;;;;;13.93;9.80;;;12.30;99.90;;;;;;5074795;28;20403;-69
2024/02/20 11:43:22;;;;;;;16.50;10.33;;;12.30;99.90;;;;;;5073854;28;20964;-69
2024/02/20 11:45:51;;;;;;;12.60;10.40;;;12.30;99.90;;;;;;5073999;28;20417;-66
2024/02/20 11:48:17;;;;;;;15.23;9.63;;;12.30;99.90;;;;;;5073446;28;20468;-72
2024/02/20 11:50:44;;;;;;;15.13;10.00;;;12.40;99.90;;;;;;5073444;28;20901;-69
2024/02/20 11:53:11;;;;;;;17.90;9.23;;;12.30;99.90;;;;;;5070787;28;20545;-69
2024/02/20 11:55:43;;;;;;;16.43;9.47;;;12.40;99.90;;;;;;5053972;28;20497;-69
2024/02/20 11:58:13;;;;;;;18.00;11.57;;;12.50;99.90;;;;;;5054472;28;20413;-69
2024/02/20 12:00:40;;;;;;;17.60;10.83;;;12.60;99.90;;;;;;5054576;28;20437;-69
2024/02/20 12:03:08;;;;;;;13.93;9.03;;;12.50;99.90;;;;;;5053188;28;20408;-69
2024/02/20 12:05:43;;;;;;;17.57;9.50;;;12.50;99.90;;;;;;5054184;28;20407;-69
2024/02/20 12:08:12;;;;;;;18.13;10.60;;;12.50;99.90;;;;;;5053453;28;20402;-69
2024/02/20 12:10:39;;;;;;;18.90;10.57;;;12.40;99.90;;;;;;5053484;28;20415;-69
2024/02/20 12:13:18;;;;;;;16.27;10.53;;;12.40;99.90;;;;;;5053065;28;20443;-69
2024/02/20 12:15:49;;;;;;;15.17;10.33;;;12.40;99.90;;;;;;5052130;28;20462;-70
2024/02/20 12:18:32;;;;;;;15.10;9.73;;;12.40;99.90;;;;;;5053582;28;21016;-70
2024/02/20 12:21:08;;;;;;;15.03;10.13;;;12.40;99.90;;;;;;5053350;28;20415;-69
2024/02/20 12:23:36;;;;;;;15.43;10.37;;;12.40;99.90;;;;;;5053492;28;20407;-70
2024/02/20 12:26:12;;;;;;;16.57;10.37;;;12.40;99.90;;;;;;5052852;28;20399;-69
2024/02/20 12:28:39;;;;;;;18.40;10.07;;;12.50;99.90;;;;;;5051273;28;20510;-69